MMLM/LMM METAR and TAF weather

Enter ICAO airport designator
Station Type Date Time Source
MMLM METAR 2019/08/24 21:44 UTC NOAA

MMLM 242144Z 18004KT 10SM SCT020 SCT220 31/21 A2992 RMK 8/101


Station Type Date Time Source
MMLM Decoded METAR 2019/08/24 21:44 UTC NOAA

Station name not available
Aug 24, 2019 - 05:44 PM EDT / 2019.08.24 2144 UTC
Wind: from the S (180 degrees) at 5 MPH (4 KT):0
Visibility: 10 mile(s):0
Sky conditions: partly cloudy
Temperature: 87 F (31 C)
Dew Point: 69 F (21 C)
Relative Humidity: 55%
Pressure (altimeter): 29.92 in. Hg (1013 hPa)
ob: MMLM 242144Z 18004KT 10SM SCT020 SCT220 31/21 A2992 RMK 8/101
cycle: 21

Station Type Date Time Source
MMLM TAF 2019/08/24 18:21 UTC NOAA

TAF MMLM 241718Z 2418/2518 04010KT P6SM BKN020 BKN060 BKN200
TEMPO 2418/2422 4SM RA BKN020CB
FM242200 36010KT P6SM SCT030 BKN120 BKN200
FM250400 34010KT P6SM SCT250
FM251600 31015KT P6SM SCT250

Example: see airport list